ENZV/SVG METAR and TAF weather

Enter ICAO airport designator
Station Type Date Time Source
ENZV METAR 2020/04/06 17:50 UTC NOAA

ENZV 061750Z 16010KT 7000 SCT014 BKN024 BKN044 08/07 Q1015 RERA NOSIG


Station Type Date Time Source
ENZV Decoded METAR 2020/04/06 17:50 UTC NOAA

Stavanger / Sola, Norway (ENZV) 58-53N 005-38E 9M
Apr 06, 2020 - 01:50 PM EDT / 2020.04.06 1750 UTC
Wind: from the SSE (160 degrees) at 12 MPH (10 KT):0
Visibility: 4 mile(s):0
Sky conditions: mostly cloudy
Temperature: 46 F (8 C)
Dew Point: 44 F (7 C)
Relative Humidity: 93%
Pressure (altimeter): 29.97 in. Hg (1015 hPa)
ob: ENZV 061750Z 16010KT 7000 SCT014 BKN024 BKN044 08/07 Q1015 RERA NOSIG
cycle: 18

Station Type Date Time Source
ENZV TAF 2020/04/06 18:57 UTC NOAA

TAF ENZV 061700Z 0618/0718 17010KT 9999 FEW010 BKN020
BECMG 0618/0620 VRB05KT
TEMPO 0618/0624 BKN012 PROB30 0703/0707 0500 FG VV002
BECMG 0710/0712 24010KT
BECMG 0715/0718 18012KT

Example: see airport list